Time;durP1;ratioP1;P1;durP2;ratioP2;P2;SDS_P1;SDS_P2;PMS_P1;PMS_P2;Temp;Humidity;BMP_temperature;BMP_pressure;BME280_temperature;BME280_humidity;BME280_pressure;Samples;Min_cycle;Max_cycle;Signal;HPM_P1;HPM_P2
2023/02/08 00:01:46;;;;;;;;;;;;;;;-8.41;77.57;94840.16;5049259;28;19974;-50
2023/02/08 00:04:11;;;;;;;;;;;;;;;-8.55;77.18;94849.03;5049179;28;19990;-48
2023/02/08 00:06:36;;;;;;;;;;;;;;;-8.52;77.58;94848.25;5048948;28;20412;-50
2023/02/08 00:09:02;;;;;;;;;;;;;;;-8.37;77.68;94842.78;5048931;28;19921;-50
2023/02/08 00:11:27;;;;;;;;;;;;;;;-8.32;76.80;94843.16;5048686;28;19927;-49
2023/02/08 00:13:53;;;;;;;;;;;;;;;-8.21;77.21;94846.47;5049079;28;19923;-49
2023/02/08 00:16:18;;;;;;;;;;;;;;;-8.28;76.98;94840.44;5048551;28;20327;-49
2023/02/08 00:18:43;;;;;;;;;;;;;;;-8.49;77.91;94843.28;5029432;28;19952;-49
2023/02/08 00:21:13;;;;;;;;;;;;;;;-8.39;78.59;94845.09;5028946;28;19913;-51
2023/02/08 00:23:38;;;;;;;;;;;;;;;-8.24;78.82;94849.94;5028943;28;20559;-49
2023/02/08 00:26:04;;;;;;;;;;;;;;;-8.13;78.15;94847.94;5032486;28;19966;-49
2023/02/08 00:28:29;;;;;;;;;;;;;;;-8.12;78.59;94851.38;5037193;28;19917;-49
2023/02/08 00:30:54;;;;;;;;;;;;;;;-7.96;77.87;94841.66;5030433;28;20301;-49
2023/02/08 00:33:19;;;;;;;;;;;;;;;-8.17;77.86;94859.84;5048620;28;19912;-49
2023/02/08 00:35:45;;;;;;;;;;;;;;;-8.32;77.91;94864.56;5048555;28;19986;-52
2023/02/08 00:38:10;;;;;;;;;;;;;;;-8.58;78.16;94860.53;5048670;28;19912;-50
2023/02/08 00:40:35;;;;;;;;;;;;;;;-8.53;78.30;94859.34;5048524;28;19916;-52
2023/02/08 00:43:01;;;;;;;;;;;;;;;-8.43;78.73;94855.84;5037691;28;20023;-49
2023/02/08 00:45:26;;;;;;;;;;;;;;;-8.44;78.54;94859.66;5028428;28;19944;-50
2023/02/08 00:47:52;;;;;;;;;;;;;;;-8.38;80.08;94852.72;5028648;28;19913;-51
2023/02/08 00:50:17;;;;;;;;;;;;;;;-8.26;80.63;94857.63;5028260;28;20023;-50
2023/02/08 00:52:42;;;;;;;;;;;;;;;-8.12;79.62;94860.16;5028238;28;19913;-50
2023/02/08 00:55:08;;;;;;;;;;;;;;;-8.40;78.41;94868.44;5028319;28;19920;-50
2023/02/08 00:57:33;;;;;;;;;;;;;;;-8.28;78.72;94873.34;5028651;28;19924;-48
2023/02/08 00:59:58;;;;;;;;;;;;;;;-8.19;79.37;94873.63;5040405;28;19940;-50
2023/02/08 01:02:24;;;;;;;;;;;;;;;-8.18;78.23;94871.69;5047774;28;19924;-50
2023/02/08 01:04:49;;;;;;;;;;;;;;;-8.31;78.79;94876.03;5047826;28;19924;-49
2023/02/08 01:07:14;;;;;;;;;;;;;;;-8.56;78.90;94876.97;5047912;28;20012;-49
2023/02/08 01:09:40;;;;;;;;;;;;;;;-8.56;78.86;94879.66;5048136;28;19932;-50
2023/02/08 01:12:05;;;;;;;;;;;;;;;-8.54;78.37;94881.94;5048036;28;19924;-50
2023/02/08 01:14:30;;;;;;;;;;;;;;;-8.49;77.96;94876.16;5030793;28;20401;-49
2023/02/08 01:16:55;;;;;;;;;;;;;;;-8.74;78.25;94883.56;5027610;28;19917;-49
2023/02/08 01:19:21;;;;;;;;;;;;;;;-8.73;79.03;94877.84;5028354;28;19917;-49
2023/02/08 01:21:48;;;;;;;;;;;;;;;-8.71;79.02;94882.78;5027846;28;20365;-51
2023/02/08 01:24:13;;;;;;;;;;;;;;;-8.74;79.12;94880.88;5027397;28;19960;-50
2023/02/08 01:26:38;;;;;;;;;;;;;;;-8.72;78.93;94881.25;5027869;28;19956;-51
2023/02/08 01:29:04;;;;;;;;;;;;;;;-8.67;79.28;94881.63;5028044;28;19917;-49
2023/02/08 01:31:30;;;;;;;;;;;;;;;-8.80;79.26;94890.50;5034441;28;20549;-50
2023/02/08 01:33:56;;;;;;;;;;;;;;;-8.89;80.25;94888.25;5047421;28;20642;-49
2023/02/08 01:36:22;;;;;;;;;;;;;;;-8.78;80.31;94880.91;5047284;28;19974;-50
2023/02/08 01:38:47;;;;;;;;;;;;;;;-8.68;79.70;94880.09;5047689;28;19974;-51
2023/02/08 01:41:22;;;;;;;;;;;;;;;-8.61;79.41;94887.31;5047885;28;19920;-52
2023/02/08 01:44:14;;;;;;;;;;;;;;;-8.54;80.46;94885.38;5047652;28;20072;-49
2023/02/08 01:46:42;;;;;;;;;;;;;;;-8.58;79.46;94889.22;5023442;28;19917;-50
2023/02/08 01:49:34;;;;;;;;;;;;;;;-8.44;80.44;94885.72;5047668;28;19947;-50
2023/02/08 01:52:04;;;;;;;;;;;;;;;-8.40;80.65;94879.16;5044614;28;19916;-50
2023/02/08 01:54:39;;;;;;;;;;;;;;;-8.44;79.81;94886.44;5045803;28;19923;-51
2023/02/08 01:57:04;;;;;;;;;;;;;;;-8.39;79.83;94883.38;5047058;28;19966;-51
2023/02/08 01:59:34;;;;;;;;;;;;;;;-8.32;79.64;94883.31;5038376;28;19913;-50
2023/02/08 02:02:00;;;;;;;;;;;;;;;-8.47;79.62;94887.25;5026514;28;20003;-50
2023/02/08 02:04:25;;;;;;;;;;;;;;;-8.55;80.08;94880.38;5026245;28;20009;-49
2023/02/08 02:06:51;;;;;;;;;;;;;;;-8.45;78.99;94884.16;5027008;28;20321;-49
2023/02/08 02:09:20;;;;;;;;;;;;;;;-8.46;78.77;94890.66;5027059;28;19924;-48
2023/02/08 02:11:45;;;;;;;;;;;;;;;-8.53;78.84;94888.78;5026237;28;19917;-50
2023/02/08 02:14:10;;;;;;;;;;;;;;;-8.86;79.68;94886.69;5027652;28;19917;-51
2023/02/08 02:16:35;;;;;;;;;;;;;;;-8.89;79.91;94882.88;5025738;28;19917;-50
2023/02/08 02:19:01;;;;;;;;;;;;;;;-8.77;80.20;94889.72;5027174;28;19952;-49
2023/02/08 02:21:47;;;;;;;;;;;;;;;-9.08;80.15;94885.25;5027401;28;19913;-49
2023/02/08 02:24:18;;;;;;;;;;;;;;;-9.31;81.21;94893.75;5025928;28;20007;-49
2023/02/08 02:26:56;;;;;;;;;;;;;;;-9.44;82.21;94900.69;5036292;28;20313;-50
2023/02/08 02:29:21;;;;;;;;;;;;;;;-9.48;82.50;94895.31;5027868;28;19917;-49
2023/02/08 02:31:49;;;;;;;;;;;;;;;-9.45;82.22;94901.81;5038892;28;20461;-49
2023/02/08 02:34:25;;;;;;;;;;;;;;;-9.67;82.52;94897.66;5033462;28;20001;-48
2023/02/08 02:36:52;;;;;;;;;;;;;;;-9.88;83.00;94898.47;5029669;28;19917;-49
2023/02/08 02:39:20;;;;;;;;;;;;;;;-9.76;83.45;94897.28;5029603;28;20016;-49
2023/02/08 02:44:50;;;;;;;;;;;;;;;-9.73;82.27;94910.66;5051042;28;19924;-49
2023/02/08 02:47:16;;;;;;;;;;;;;;;-9.59;81.38;94905.28;5050537;28;19921;-49
2023/02/08 02:49:47;;;;;;;;;;;;;;;-9.69;81.14;94899.94;5050493;28;19920;-49
2023/02/08 02:52:18;;;;;;;;;;;;;;;-9.80;81.58;94904.53;5049933;28;19913;-49
2023/02/08 02:54:48;;;;;;;;;;;;;;;-9.88;81.89;94906.47;5049813;28;19999;-49
2023/02/08 02:57:15;;;;;;;;;;;;;;;-9.81;81.30;94906.44;5050758;28;19917;-49
2023/02/08 02:59:41;;;;;;;;;;;;;;;-9.78;80.99;94908.38;5039675;28;20372;-51
2023/02/08 03:02:07;;;;;;;;;;;;;;;-9.71;80.71;94918.28;5030529;28;20008;-50
2023/02/08 03:04:32;;;;;;;;;;;;;;;-9.78;80.54;94916.38;5030704;28;20675;-52
2023/02/08 03:07:00;;;;;;;;;;;;;;;-9.92;81.58;94916.41;5030380;28;19921;-48
2023/02/08 03:09:32;;;;;;;;;;;;;;;-9.76;80.73;94910.66;5029877;28;20409;-49
2023/02/08 03:12:12;;;;;;;;;;;;;;;-9.86;80.98;94916.78;5030123;28;20519;-48
2023/02/08 03:14:40;;;;;;;;;;;;;;;-9.95;81.55;94909.16;5030259;28;19912;-50
2023/02/08 03:17:24;;;;;;;;;;;;;;;-9.98;82.00;94917.91;5030522;28;19917;-49
2023/02/08 03:19:54;;;;;;;;;;;;;;;-9.97;82.60;94911.44;5029850;28;19964;-48
2023/02/08 03:22:21;;;;;;;;;;;;;;;-10.12;82.47;94913.38;5028827;28;19921;-49
2023/02/08 03:24:49;;;;;;;;;;;;;;;-10.08;82.01;94924.81;5029171;28;20004;-48
2023/02/08 03:27:27;;;;;;;;;;;;;;;-10.28;81.66;94912.22;5041762;28;19916;-48
2023/02/08 03:30:04;;;;;;;;;;;;;;;-10.15;82.06;94916.81;5028710;28;19939;-49
2023/02/08 03:32:48;;;;;;;;;;;;;;;-10.17;81.75;94915.66;5030848;28;19921;-48
2023/02/08 03:35:13;;;;;;;;;;;;;;;-10.06;81.56;94919.06;5049812;28;19974;-49
2023/02/08 03:37:40;;;;;;;;;;;;;;;-10.12;79.68;94921.41;5049711;28;19917;-49
2023/02/08 03:40:26;;;;;;;;;;;;;;;-10.36;80.34;94922.13;5048048;28;20400;-49
2023/02/08 03:42:51;;;;;;;;;;;;;;;-10.60;80.46;94924.75;5047801;28;19923;-49
2023/02/08 03:45:40;;;;;;;;;;;;;;;-10.76;79.84;94925.09;5048230;28;19921;-49
2023/02/08 03:48:05;;;;;;;;;;;;;;;-10.77;80.31;94930.81;5029743;28;19917;-49
2023/02/08 03:50:33;;;;;;;;;;;;;;;-10.98;80.54;94924.25;5048192;28;19931;-49
2023/02/08 03:52:58;;;;;;;;;;;;;;;-10.97;80.34;94936.47;5047772;28;19963;-50
2023/02/08 03:55:25;;;;;;;;;;;;;;;-11.10;80.79;94929.94;5049737;28;19955;-49
2023/02/08 03:58:04;;;;;;;;;;;;;;;-11.11;81.46;94923.06;5047973;28;19913;-48
2023/02/08 04:00:29;;;;;;;;;;;;;;;-10.96;80.78;94927.31;5044569;28;19917;-49
2023/02/08 04:02:56;;;;;;;;;;;;;;;-11.04;80.49;94925.78;5027884;28;19924;-48
2023/02/08 04:05:21;;;;;;;;;;;;;;;-11.05;79.77;94926.16;5028948;28;19921;-49
2023/02/08 04:07:47;;;;;;;;;;;;;;;-11.00;78.85;94925.81;5027877;28;20028;-48
2023/02/08 04:10:12;;;;;;;;;;;;;;;-11.26;79.64;94929.47;5028951;28;19928;-48
2023/02/08 04:12:37;;;;;;;;;;;;;;;-11.28;79.50;94937.09;5028973;28;19917;-50
2023/02/08 04:15:03;;;;;;;;;;;;;;;-11.19;79.71;94936.75;5029107;28;19920;-52
2023/02/08 04:17:28;;;;;;;;;;;;;;;-11.10;81.00;94943.28;5028831;28;20405;-50
2023/02/08 04:19:53;;;;;;;;;;;;;;;-11.13;79.93;94951.28;5028772;28;19963;-50
2023/02/08 04:22:19;;;;;;;;;;;;;;;-11.33;79.38;94950.78;5028624;28;19917;-49
2023/02/08 04:24:44;;;;;;;;;;;;;;;-11.25;78.62;94941.69;5028760;28;19919;-50
2023/02/08 04:27:09;;;;;;;;;;;;;;;-11.31;78.86;94945.84;5041142;28;19916;-50
2023/02/08 04:29:34;;;;;;;;;;;;;;;-11.66;79.57;94945.66;5048509;28;19964;-49
2023/02/08 04:32:00;;;;;;;;;;;;;;;-11.69;79.46;94943.75;5048338;28;19963;-51
2023/02/08 04:34:26;;;;;;;;;;;;;;;-11.72;79.23;94957.81;5029534;28;19925;-50
2023/02/08 04:36:51;;;;;;;;;;;;;;;-11.78;79.62;94961.97;5028453;28;20036;-49
2023/02/08 04:39:16;;;;;;;;;;;;;;;-11.77;79.22;94955.50;5028328;28;19995;-49
2023/02/08 04:41:41;;;;;;;;;;;;;;;-11.98;79.95;94966.00;5028295;28;19924;-49
2023/02/08 04:44:07;;;;;;;;;;;;;;;-12.14;79.95;94968.91;5047860;28;20419;-48
2023/02/08 04:46:32;;;;;;;;;;;;;;;-12.29;79.80;94964.59;5048373;28;19912;-49
2023/02/08 04:48:57;;;;;;;;;;;;;;;-12.30;80.81;94967.63;5048099;28;19917;-50
2023/02/08 04:51:23;;;;;;;;;;;;;;;-12.19;81.24;94971.88;5048087;28;19923;-48
2023/02/08 04:53:48;;;;;;;;;;;;;;;-12.07;81.50;94973.53;5047854;28;19924;-50
2023/02/08 04:56:13;;;;;;;;;;;;;;;-12.06;81.49;94973.16;5048402;28;20019;-49
2023/02/08 04:58:39;;;;;;;;;;;;;;;-12.08;79.91;94972.00;5038723;28;19936;-48
2023/02/08 05:01:09;;;;;;;;;;;;;;;-12.10;79.35;94990.22;5047907;28;19917;-49
2023/02/08 05:03:34;;;;;;;;;;;;;;;-12.25;76.85;94983.25;5028438;28;19921;-50
2023/02/08 05:06:00;;;;;;;;;;;;;;;-12.17;77.73;94987.50;5027853;28;19946;-50
2023/02/08 05:08:25;;;;;;;;;;;;;;;-12.29;79.17;94993.84;5027627;28;19963;-50
2023/02/08 05:10:50;;;;;;;;;;;;;;;-12.17;79.85;94993.56;5027901;28;19967;-50
2023/02/08 05:13:16;;;;;;;;;;;;;;;-12.22;80.09;95001.16;5027846;28;19929;-50
2023/02/08 05:15:42;;;;;;;;;;;;;;;-12.02;80.57;94999.81;5027469;28;19921;-50
2023/02/08 05:18:07;;;;;;;;;;;;;;;-12.00;80.01;95003.66;5027653;28;19924;-49
2023/02/08 05:20:32;;;;;;;;;;;;;;;-12.43;79.29;94999.81;5027905;28;19921;-50
2023/02/08 05:22:58;;;;;;;;;;;;;;;-12.61;79.46;95008.75;5027841;28;20339;-50
2023/02/08 05:25:23;;;;;;;;;;;;;;;-12.70;79.19;95011.69;5028079;28;20353;-49
2023/02/08 05:27:48;;;;;;;;;;;;;;;-12.71;79.46;95012.81;5039476;28;19917;-50
2023/02/08 05:30:13;;;;;;;;;;;;;;;-12.73;79.26;95009.75;5027444;28;19921;-50
2023/02/08 05:32:39;;;;;;;;;;;;;;;-12.66;78.70;95023.13;5039336;28;20305;-49
2023/02/08 05:35:04;;;;;;;;;;;;;;;-12.86;79.08;95037.69;5027483;28;19917;-51
2023/02/08 05:37:29;;;;;;;;;;;;;;;-12.63;78.93;95024.31;5027385;28;19917;-49
2023/02/08 05:39:55;;;;;;;;;;;;;;;-12.50;77.73;95026.34;5027521;28;19913;-50
2023/02/08 05:42:20;;;;;;;;;;;;;;;-12.63;78.82;95021.63;5032737;28;19917;-49
2023/02/08 05:44:45;;;;;;;;;;;;;;;-12.48;78.77;95032.06;5047276;28;20625;-50
2023/02/08 05:47:10;;;;;;;;;;;;;;;-12.39;79.33;95042.44;5047281;28;19917;-51
2023/02/08 05:49:36;;;;;;;;;;;;;;;-12.58;78.63;95032.72;5047398;28;19928;-50
2023/02/08 05:52:01;;;;;;;;;;;;;;;-12.33;78.50;95034.88;5047020;28;20461;-49
2023/02/08 05:54:26;;;;;;;;;;;;;;;-12.33;77.92;95043.63;5047240;28;19916;-49
2023/02/08 05:56:51;;;;;;;;;;;;;;;-12.43;77.96;95049.59;5047144;28;20228;-49
2023/02/08 05:59:17;;;;;;;;;;;;;;;-12.55;78.11;95047.19;5046642;28;19974;-48
2023/02/08 06:01:42;;;;;;;;;;;;;;;-12.36;77.12;95044.34;5047309;28;20016;-50
2023/02/08 06:04:07;;;;;;;;;;;;;;;-12.34;76.63;95044.00;5046964;28;19917;-50
2023/02/08 06:06:32;;;;;;;;;;;;;;;-12.46;77.22;95043.13;5049812;28;19921;-48
2023/02/08 06:08:58;;;;;;;;;;;;;;;-12.12;77.27;95041.16;5051418;28;19919;-50
2023/02/08 06:11:23;;;;;;;;;;;;;;;-12.04;75.26;95044.69;5051048;28;19928;-50
2023/02/08 06:13:48;;;;;;;;;;;;;;;-11.78;75.80;95047.94;5051049;28;19913;-49
2023/02/08 06:16:14;;;;;;;;;;;;;;;-11.68;75.44;95057.94;5051215;28;19940;-48
2023/02/08 06:18:39;;;;;;;;;;;;;;;-11.48;75.14;95060.34;5051247;28;19952;-50
2023/02/08 06:21:04;;;;;;;;;;;;;;;-11.29;73.57;95063.53;5051285;28;20046;-50
2023/02/08 06:23:30;;;;;;;;;;;;;;;-11.19;73.78;95060.16;5050993;28;20432;-50
2023/02/08 06:25:55;;;;;;;;;;;;;;;-11.36;74.27;95065.34;5048235;28;19920;-50
2023/02/08 06:28:20;;;;;;;;;;;;;;;-11.29;74.22;95063.53;5031165;28;19913;-49
2023/02/08 06:30:47;;;;;;;;;;;;;;;-11.41;74.64;95055.81;5030395;28;19946;-49
2023/02/08 06:33:13;;;;;;;;;;;;;;;-11.34;74.64;95061.19;5031000;28;20281;-47
2023/02/08 06:35:38;;;;;;;;;;;;;;;-11.34;74.18;95077.19;5030605;28;19920;-50
2023/02/08 06:38:03;;;;;;;;;;;;;;;-11.17;73.38;95075.78;5030948;28;19917;-51
2023/02/08 06:40:28;;;;;;;;;;;;;;;-10.90;71.96;95077.88;5030519;28;20405;-50
2023/02/08 06:42:54;;;;;;;;;;;;;;;-10.51;72.95;95078.06;5040265;28;19917;-50
2023/02/08 06:45:19;;;;;;;;;;;;;;;-10.10;72.44;95067.88;5050437;28;19919;-52
2023/02/08 06:47:44;;;;;;;;;;;;;;;-9.95;70.02;95074.78;5050550;28;19924;-50
2023/02/08 06:50:09;;;;;;;;;;;;;;;-10.41;69.95;95072.00;5050496;28;19916;-49
2023/02/08 06:52:35;;;;;;;;;;;;;;;-10.35;69.80;95073.16;5050361;28;19960;-50
2023/02/08 06:55:00;;;;;;;;;;;;;;;-10.48;71.39;95071.94;5040005;28;19919;-49
2023/02/08 06:57:25;;;;;;;;;;;;;;;-10.36;73.11;95084.22;5030195;28;20320;-49
2023/02/08 06:59:51;;;;;;;;;;;;;;;-10.13;73.76;95090.78;5030562;28;19917;-50
2023/02/08 07:02:17;;;;;;;;;;;;;;;-9.98;73.16;95085.47;5030379;28;19917;-50
2023/02/08 07:04:44;;;;;;;;;;;;;;;-9.87;72.33;95088.91;5029276;28;19947;-50
2023/02/08 07:07:10;;;;;;;;;;;;;;;-9.50;71.70;95084.75;5028727;28;20012;-49
2023/02/08 07:09:35;;;;;;;;;;;;;;;-9.38;70.51;95080.94;5030243;28;20016;-50
2023/02/08 07:12:04;;;;;;;;;;;;;;;-9.09;69.66;95092.38;5030354;28;20300;-48
2023/02/08 07:14:32;;;;;;;;;;;;;;;-8.69;68.72;95105.34;5030072;28;20442;-51
2023/02/08 07:16:58;;;;;;;;;;;;;;;-8.40;68.22;95085.34;5030133;28;20261;-49
2023/02/08 07:19:23;;;;;;;;;;;;;;;-8.74;70.64;95100.38;5030315;28;19947;-50
2023/02/08 07:21:49;;;;;;;;;;;;;;;-8.41;69.62;95101.81;5030084;28;20388;-51
2023/02/08 07:24:14;;;;;;;;;;;;;;;-8.12;71.17;95103.97;5029979;28;20316;-53
2023/02/08 07:26:39;;;;;;;;;;;;;;;-8.32;70.00;95108.31;5038239;28;19913;-52
2023/02/08 07:29:05;;;;;;;;;;;;;;;-8.14;70.30;95108.97;5049869;28;19916;-51
2023/02/08 07:31:30;;;;;;;;;;;;;;;-7.62;71.31;95106.44;5049408;28;20419;-50
2023/02/08 07:33:55;;;;;;;;;;;;;;;-7.20;70.93;95104.22;5035514;28;19925;-52
2023/02/08 07:36:20;;;;;;;;;;;;;;;-6.51;70.52;95093.25;5029457;28;20416;-50
2023/02/08 07:38:46;;;;;;;;;;;;;;;-5.26;66.78;95098.56;5029711;28;19921;-51
2023/02/08 07:41:11;;;;;;;;;;;;;;;-4.20;63.24;95100.25;5029925;28;19919;-50
2023/02/08 07:43:37;;;;;;;;;;;;;;;-3.08;60.58;95092.50;5045324;28;20017;-50
2023/02/08 07:46:09;;;;;;;;;;;;;;;-3.00;55.58;95081.50;5049908;28;19917;-50
2023/02/08 07:48:34;;;;;;;;;;;;;;;-2.94;56.69;95088.69;5049350;28;19920;-50
2023/02/08 07:51:00;;;;;;;;;;;;;;;-1.40;54.27;95074.13;5041081;28;19932;-50
2023/02/08 07:53:25;;;;;;;;;;;;;;;-0.54;53.46;95081.91;5029610;28;20540;-51
2023/02/08 07:55:50;;;;;;;;;;;;;;;-0.27;50.63;95076.72;5029619;28;20009;-49
2023/02/08 07:58:15;;;;;;;;;;;;;;;-0.47;52.43;95077.00;5029352;28;20458;-49
2023/02/08 08:00:41;;;;;;;;;;;;;;;0.79;50.60;95068.22;5029601;28;19913;-50
2023/02/08 08:03:06;;;;;;;;;;;;;;;1.37;47.36;95074.47;5029204;28;20634;-50
2023/02/08 08:05:31;;;;;;;;;;;;;;;2.54;46.05;95074.97;5029202;28;19925;-49
2023/02/08 08:07:57;;;;;;;;;;;;;;;2.87;44.26;95078.53;5029107;28;19920;-51
2023/02/08 08:10:22;;;;;;;;;;;;;;;2.50;44.31;95080.59;5029138;28;19920;-53
2023/02/08 08:12:47;;;;;;;;;;;;;;;3.73;40.82;95088.44;5029142;28;20416;-51
2023/02/08 08:15:13;;;;;;;;;;;;;;;3.67;42.96;95084.09;5029179;28;20405;-50
2023/02/08 08:17:40;;;;;;;;;;;;;;;3.95;41.92;95095.59;5028762;28;19913;-51
2023/02/08 08:20:07;;;;;;;;;;;;;;;3.53;41.94;95096.44;5028788;28;20409;-51
2023/02/08 08:22:32;;;;;;;;;;;;;;;2.26;45.02;95093.31;5028679;28;19971;-52
2023/02/08 08:24:58;;;;;;;;;;;;;;;2.56;45.04;95092.38;5028953;28;19985;-50
2023/02/08 08:27:24;;;;;;;;;;;;;;;3.04;45.69;95102.28;5040620;28;19952;-50
2023/02/08 08:29:49;;;;;;;;;;;;;;;4.57;42.71;95099.03;5028147;28;19956;-49
2023/02/08 08:32:14;;;;;;;;;;;;;;;4.40;41.09;95100.72;5040273;28;19965;-49
2023/02/08 08:34:40;;;;;;;;;;;;;;;4.82;41.23;95095.78;5028823;28;19970;-52
2023/02/08 08:37:05;;;;;;;;;;;;;;;4.38;40.03;95095.72;5028365;28;20352;-51
2023/02/08 08:39:31;;;;;;;;;;;;;;;4.59;37.47;95097.34;5028370;28;20028;-49
2023/02/08 08:41:57;;;;;;;;;;;;;;;5.08;38.24;95098.69;5030240;28;19922;-50
2023/02/08 08:44:22;;;;;;;;;;;;;;;6.68;35.67;95100.13;5048254;28;19947;-50
2023/02/08 08:46:47;;;;;;;;;;;;;;;5.47;35.94;95102.78;5043663;28;20412;-50
2023/02/08 08:49:13;;;;;;;;;;;;;;;5.31;35.71;95106.03;5028647;28;19923;-51
2023/02/08 08:51:38;;;;;;;;;;;;;;;6.45;36.14;95101.13;5027985;28;19928;-50
2023/02/08 08:54:03;;;;;;;;;;;;;;;6.63;34.26;95095.31;5028371;28;19917;-50
2023/02/08 08:56:28;;;;;;;;;;;;;;;7.11;33.30;95090.78;5028081;28;20444;-51
2023/02/08 08:58:54;;;;;;;;;;;;;;;7.46;33.71;95101.56;5030854;28;19916;-52
2023/02/08 09:01:19;;;;;;;;;;;;;;;7.40;32.47;95106.28;5048145;28;20438;-51
2023/02/08 09:03:44;;;;;;;;;;;;;;;7.04;32.36;95110.44;5047939;28;19975;-50
2023/02/08 09:06:10;;;;;;;;;;;;;;;5.81;33.48;95115.75;5047464;28;19982;-49
2023/02/08 09:08:35;;;;;;;;;;;;;;;5.71;35.21;95114.34;5048287;28;19916;-50
2023/02/08 09:11:10;;;;;;;;;;;;;;;6.63;34.39;95114.53;5048458;28;19928;-50
2023/02/08 09:13:36;;;;;;;;;;;;;;;6.03;34.08;95116.06;5048635;28;19986;-51
2023/02/08 09:16:05;;;;;;;;;;;;;;;7.05;33.12;95113.94;5048395;28;19959;-50
2023/02/08 09:18:30;;;;;;;;;;;;;;;7.98;32.35;95102.16;5048450;28;19916;-48
2023/02/08 09:20:56;;;;;;;;;;;;;;;7.58;31.25;95106.66;5048126;28;20545;-50
2023/02/08 09:23:21;;;;;;;;;;;;;;;8.46;30.05;95105.66;5048583;28;19913;-50
2023/02/08 09:25:46;;;;;;;;;;;;;;;9.35;29.40;95105.84;5047182;28;20095;-50
2023/02/08 09:28:11;;;;;;;;;;;;;;;9.65;29.00;95101.31;5037702;28;19913;-50
2023/02/08 09:30:37;;;;;;;;;;;;;;;8.05;29.26;95098.94;5048495;28;20556;-50
2023/02/08 09:33:02;;;;;;;;;;;;;;;8.52;29.29;95097.41;5040608;28;20308;-50
2023/02/08 09:35:27;;;;;;;;;;;;;;;8.79;28.24;95097.47;5028505;28;20059;-50
2023/02/08 09:37:54;;;;;;;;;;;;;;;7.81;27.80;95096.56;5028183;28;19960;-50
2023/02/08 09:40:32;;;;;;;;;;;;;;;9.52;28.12;95106.59;5027035;28;19924;-50
2023/02/08 09:43:01;;;;;;;;;;;;;;;8.48;27.22;95110.66;5037230;28;20415;-51
2023/02/08 09:45:36;;;;;;;;;;;;;;;7.92;29.05;95098.63;5048032;28;20040;-52
2023/02/08 09:48:05;;;;;;;;;;;;;;;8.11;27.55;95091.47;5047787;28;19920;-50
2023/02/08 09:50:31;;;;;;;;;;;;;;;8.88;29.26;95102.78;5047916;28;19924;-51
2023/02/08 09:53:02;;;;;;;;;;;;;;;7.76;29.32;95096.50;5046444;28;19916;-50
2023/02/08 09:55:35;;;;;;;;;;;;;;;7.75;28.70;95097.78;5048092;28;19912;-50
2023/02/08 09:58:01;;;;;;;;;;;;;;;8.41;26.66;95103.63;5043339;28;19932;-51
2023/02/08 10:00:30;;;;;;;;;;;;;;;8.05;28.07;95096.94;5042196;28;20386;-50
2023/02/08 10:02:56;;;;;;;;;;;;;;;8.09;27.98;95099.47;5048002;28;20066;-52
2023/02/08 10:05:21;;;;;;;;;;;;;;;6.93;27.76;95093.13;5047959;28;20444;-50
2023/02/08 10:07:46;;;;;;;;;;;;;;;7.52;30.30;95097.63;5046729;28;19939;-50
2023/02/08 10:10:18;;;;;;;;;;;;;;;7.78;29.25;95083.78;5045893;28;19921;-51
2023/02/08 10:13:02;;;;;;;;;;;;;;;8.33;27.44;95075.09;5045789;28;19923;-51
2023/02/08 10:15:28;;;;;;;;;;;;;;;5.64;31.64;95089.34;5046893;28;19920;-51
2023/02/08 10:18:02;;;;;;;;;;;;;;;4.93;32.32;95082.28;5047219;28;19916;-50
2023/02/08 10:20:30;;;;;;;;;;;;;;;4.39;33.10;95089.03;5046799;28;19916;-52
2023/02/08 10:23:34;;;;;;;;;;;;;;;4.09;34.36;95094.91;5046826;28;19916;-50
2023/02/08 10:25:59;;;;;;;;;;;;;;;3.70;34.47;95089.38;4982204;28;20017;-49
2023/02/08 10:28:31;;;;;;;;;;;;;;;5.10;34.14;95094.25;4976055;28;20008;-51
2023/02/08 10:30:56;;;;;;;;;;;;;;;5.85;32.78;95099.13;5012971;28;19929;-50
2023/02/08 10:33:36;;;;;;;;;;;;;;;7.40;29.53;95089.78;5027164;28;20463;-51
2023/02/08 10:36:02;;;;;;;;;;;;;;;7.43;29.60;95094.28;5027018;28;20412;-52
2023/02/08 10:38:28;;;;;;;;;;;;;;;6.90;29.88;95089.34;5027020;28;19913;-51
2023/02/08 10:40:58;;;;;;;;;;;;;;;6.77;29.23;95080.75;5027209;28;19917;-50
2023/02/08 10:43:24;;;;;;;;;;;;;;;4.92;33.81;95091.72;5033155;28;19921;-50
2023/02/08 10:45:59;;;;;;;;;;;;;;;6.34;32.02;95084.53;5027092;28;20618;-50
2023/02/08 10:48:51;;;;;;;;;;;;;;;5.94;32.00;95085.28;5027122;28;20008;-52
2023/02/08 10:51:17;;;;;;;;;;;;;;;6.59;31.41;95083.81;5003641;28;19925;-50
2023/02/08 10:53:42;;;;;;;;;;;;;;;5.89;31.21;95083.97;5029470;28;19920;-49
2023/02/08 10:56:16;;;;;;;;;;;;;;;4.57;32.47;95088.09;5030263;28;19992;-49
2023/02/08 10:58:42;;;;;;;;;;;;;;;1.71;36.61;95091.78;5035831;28;20393;-49
2023/02/08 11:01:07;;;;;;;;;;;;;;;1.88;38.61;95088.34;5030667;28;19913;-50
2023/02/08 11:03:33;;;;;;;;;;;;;;;3.53;35.04;95087.53;5030397;28;19917;-50
2023/02/08 11:05:58;;;;;;;;;;;;;;;4.67;33.11;95083.31;5030105;28;20323;-49
2023/02/08 11:08:24;;;;;;;;;;;;;;;4.04;34.91;95093.56;5030515;28;19917;-50
2023/02/08 11:10:55;;;;;;;;;;;;;;;5.22;32.01;95087.72;5030243;28;20689;-49
2023/02/08 11:13:20;;;;;;;;;;;;;;;5.16;31.84;95089.63;5030317;28;19917;-49
2023/02/08 11:15:47;;;;;;;;;;;;;;;5.90;31.55;95080.00;5030267;28;19921;-52
2023/02/08 11:18:23;;;;;;;;;;;;;;;6.10;30.33;95087.50;5028707;28;19921;-50
2023/02/08 11:20:49;;;;;;;;;;;;;;;5.43;29.49;95096.75;5028710;28;20043;-50
2023/02/08 11:23:17;;;;;;;;;;;;;;;5.37;31.40;95091.19;5028901;28;20312;-49
2023/02/08 11:25:42;;;;;;;;;;;;;;;5.42;31.14;95084.28;5028899;28;19917;-50
2023/02/08 11:28:20;;;;;;;;;;;;;;;5.12;31.44;95086.31;5029911;28;19917;-50
2023/02/08 11:30:53;;;;;;;;;;;;;;;4.83;32.75;95085.59;5029880;28;19970;-50
2023/02/08 11:33:19;;;;;;;;;;;;;;;5.76;32.42;95083.53;5029621;28;19917;-49
2023/02/08 11:35:54;;;;;;;;;;;;;;;6.85;30.44;95090.06;5029868;28;19921;-50
2023/02/08 11:38:26;;;;;;;;;;;;;;;6.02;30.65;95084.38;5029531;28;19924;-50
2023/02/08 11:40:52;;;;;;;;;;;;;;;5.60;31.79;95095.03;5046627;28;19917;-50
2023/02/08 11:43:23;;;;;;;;;;;;;;;5.46;31.67;95098.53;5044873;28;20374;-52
2023/02/08 11:45:49;;;;;;;;;;;;;;;3.53;33.14;95090.97;5029664;28;19913;-50
2023/02/08 11:48:19;;;;;;;;;;;;;;;3.85;33.96;95083.97;5029705;28;20251;-50
2023/02/08 11:50:44;;;;;;;;;;;;;;;3.00;35.28;95088.03;5029544;28;20035;-50
2023/02/08 11:53:39;;;;;;;;;;;;;;;3.52;34.04;95088.72;5029745;28;20536;-50
2023/02/08 11:56:06;;;;;;;;;;;;;;;3.88;34.52;95099.44;5020147;28;19921;-50
2023/02/08 11:58:32;;;;;;;;;;;;;;;4.09;35.38;95097.63;5027726;28;20397;-49
2023/02/08 12:01:02;;;;;;;;;;;;;;;4.56;34.42;95113.94;5029428;28;19924;-49
2023/02/08 12:03:30;;;;;;;;;;;;;;;5.58;33.94;95088.50;5027727;28;19935;-52
2023/02/08 12:06:02;;;;;;;;;;;;;;;3.70;34.71;95100.28;5027565;28;19925;-50
2023/02/08 12:08:33;;;;;;;;;;;;;;;2.06;38.81;95109.38;5027480;28;19917;-49
2023/02/08 12:10:58;;;;;;;;;;;;;;;2.29;38.83;95101.38;5027533;28;19927;-48
2023/02/08 12:13:23;;;;;;;;;;;;;;;2.06;38.53;95101.94;5029387;28;19917;-49
2023/02/08 12:15:58;;;;;;;;;;;;;;;2.82;38.81;95095.50;5029124;28;20304;-50
2023/02/08 12:18:26;;;;;;;;;;;;;;;3.53;36.20;95098.44;5029148;28;20339;-48
2023/02/08 12:20:54;;;;;;;;;;;;;;;2.88;37.79;95090.97;5028704;28;20435;-49
2023/02/08 12:23:24;;;;;;;;;;;;;;;1.80;40.01;95092.56;5027243;28;19917;-49
2023/02/08 12:25:53;;;;;;;;;;;;;;;1.43;41.18;95080.06;5027693;28;19919;-51
2023/02/08 12:28:22;;;;;;;;;;;;;;;1.88;39.59;95087.59;5034445;28;19917;-50
2023/02/08 12:30:58;;;;;;;;;;;;;;;1.91;40.46;95092.88;5028513;28;19924;-49
2023/02/08 12:33:37;;;;;;;;;;;;;;;1.87;40.56;95086.06;5034272;28;19913;-48
2023/02/08 12:36:02;;;;;;;;;;;;;;;0.85;41.62;95095.59;5028412;28;19917;-49
2023/02/08 12:41:25;;;;;;;;;;;;;;;0.51;39.96;95085.59;5027250;28;20021;-48
2023/02/08 12:44:10;;;;;;;;;;;;;;;0.36;40.90;95090.03;5027083;28;19921;-49
2023/02/08 12:46:41;;;;;;;;;;;;;;;0.05;41.52;95106.25;5006857;28;19924;-49
2023/02/08 12:49:25;;;;;;;;;;;;;;;0.39;41.80;95103.47;5028284;28;19921;-48
2023/02/08 12:51:55;;;;;;;;;;;;;;;1.01;42.84;95107.00;5028360;28;20007;-48
2023/02/08 12:54:37;;;;;;;;;;;;;;;1.14;41.02;95107.66;5027118;28;20320;-48
2023/02/08 12:57:03;;;;;;;;;;;;;;;0.70;41.29;95117.09;5028426;28;19944;-49